Time;durP1;ratioP1;P1;durP2;ratioP2;P2;SDS_P1;SDS_P2;PMS_P1;PMS_P2;Temp;Humidity;BMP_temperature;BMP_pressure;BME280_temperature;BME280_humidity;BME280_pressure;Samples;Min_cycle;Max_cycle;Signal;HPM_P1;HPM_P2
2022/09/19 00:01:16;;;;;;;1.40;0.60;;;;;;;;;;5069993;28;20040;-85
2022/09/19 00:03:52;;;;;;;1.55;0.80;;;;;;;;;;5063697;28;20051;-85
2022/09/19 00:06:19;;;;;;;1.48;0.70;;;;;;;;;;5066043;28;20041;-85
2022/09/19 00:08:51;;;;;;;1.02;0.47;;;;;;;;;;5047659;28;20029;-85
2022/09/19 00:11:20;;;;;;;2.80;0.80;;;;;;;;;;5066011;28;20511;-85
2022/09/19 00:13:49;;;;;;;0.98;0.70;;;;;;;;;;5055824;28;20125;-83
2022/09/19 00:16:44;;;;;;;1.58;0.63;;;;;;;;;;5071672;28;20115;-83
2022/09/19 00:19:18;;;;;;;2.95;1.05;;;;;;;;;;5072712;28;20037;-84
2022/09/19 00:21:48;;;;;;;0.98;0.60;;;;;;;;;;5054489;28;20059;-84
2022/09/19 00:24:48;;;;;;;1.20;0.70;;;;;;;;;;5073005;28;20475;-83
2022/09/19 00:27:27;;;;;;;1.05;0.52;;;;;;;;;;5054270;28;20063;-83
2022/09/19 00:29:55;;;;;;;3.97;0.60;;;;;;;;;;5054166;28;20052;-83
2022/09/19 00:32:23;;;;;;;1.25;0.50;;;;;;;;;;5051866;28;20036;-83
2022/09/19 00:34:54;;;;;;;1.23;0.50;;;;;;;;;;5070215;28;20045;-83
2022/09/19 00:37:23;;;;;;;0.47;0.43;;;;;;;;;;5050217;28;20032;-83
2022/09/19 00:39:52;;;;;;;1.52;0.47;;;;;;;;;;5073755;28;20090;-84
2022/09/19 00:42:43;;;;;;;0.50;0.40;;;;;;;;;;5042325;28;20100;-83
2022/09/19 00:45:35;;;;;;;0.88;0.60;;;;;;;;;;5071189;28;20112;-83
2022/09/19 00:48:03;;;;;;;2.58;0.52;;;;;;;;;;5072614;28;20047;-83
2022/09/19 00:50:31;;;;;;;3.20;0.52;;;;;;;;;;5035212;28;20040;-83
2022/09/19 00:53:20;;;;;;;1.48;0.43;;;;;;;;;;5069883;28;20040;-83
2022/09/19 00:55:54;;;;;;;0.57;0.40;;;;;;;;;;5054005;28;20502;-83
2022/09/19 00:58:31;;;;;;;1.58;0.63;;;;;;;;;;5037602;28;20044;-83
2022/09/19 01:00:59;;;;;;;0.63;0.40;;;;;;;;;;5070135;28;20029;-83
2022/09/19 01:03:28;;;;;;;1.20;0.60;;;;;;;;;;5039208;28;20075;-83
2022/09/19 01:05:56;;;;;;;2.25;0.60;;;;;;;;;;5068466;28;20048;-82
2022/09/19 01:08:46;;;;;;;1.05;0.47;;;;;;;;;;5057362;28;20041;-83
2022/09/19 01:11:42;;;;;;;2.25;0.60;;;;;;;;;;5053509;28;20036;-83
2022/09/19 01:14:53;;;;;;;0.70;0.45;;;;;;;;;;5070070;28;20070;-83
2022/09/19 01:17:50;;;;;;;0.45;0.32;;;;;;;;;;5051584;28;20037;-82
2022/09/19 01:20:31;;;;;;;2.13;0.63;;;;;;;;;;5057402;28;20052;-84
2022/09/19 01:23:15;;;;;;;0.68;0.47;;;;;;;;;;5069632;28;20048;-83
2022/09/19 01:26:01;;;;;;;1.45;0.63;;;;;;;;;;5032742;28;20056;-83
2022/09/19 01:29:00;;;;;;;0.93;0.57;;;;;;;;;;5053458;28;20040;-83
2022/09/19 01:31:33;;;;;;;3.50;0.47;;;;;;;;;;5047257;28;20120;-83
2022/09/19 01:34:12;;;;;;;5.82;1.40;;;;;;;;;;5053986;28;20127;-83
2022/09/19 01:37:12;;;;;;;2.47;0.70;;;;;;;;;;5070867;28;20045;-83
2022/09/19 01:39:48;;;;;;;1.33;0.60;;;;;;;;;;5069149;28;20135;-83
2022/09/19 01:42:22;;;;;;;0.75;0.45;;;;;;;;;;5039238;28;20127;-83
2022/09/19 01:44:59;;;;;;;1.50;0.60;;;;;;;;;;5069687;28;20053;-83
2022/09/19 01:48:12;;;;;;;1.20;0.70;;;;;;;;;;5071204;28;20175;-82
2022/09/19 01:51:10;;;;;;;2.88;0.80;;;;;;;;;;4971913;28;20047;-83
2022/09/19 01:54:06;;;;;;;1.85;0.73;;;;;;;;;;4941867;28;20502;-83
2022/09/19 01:57:19;;;;;;;2.22;0.63;;;;;;;;;;4956393;28;20063;-83
2022/09/19 02:00:11;;;;;;;2.85;0.90;;;;;;;;;;4955473;28;20054;-82
2022/09/19 02:02:53;;;;;;;0.98;0.60;;;;;;;;;;4971084;28;20082;-83
2022/09/19 02:05:50;;;;;;;1.20;0.50;;;;;;;;;;4970930;28;20629;-83
2022/09/19 02:08:40;;;;;;;1.38;0.73;;;;;;;;;;4955056;28;20047;-82
2022/09/19 02:11:15;;;;;;;1.90;0.80;;;;;;;;;;4956043;28;20644;-83
2022/09/19 02:13:49;;;;;;;1.33;0.60;;;;;;;;;;4971093;28;20045;-82
2022/09/19 02:16:25;;;;;;;2.13;0.98;;;;;;;;;;4971021;28;21033;-83
2022/09/19 02:18:57;;;;;;;1.95;0.80;;;;;;;;;;4971766;28;20066;-82
2022/09/19 02:21:42;;;;;;;3.97;0.98;;;;;;;;;;4971872;28;20081;-83
2022/09/19 02:24:18;;;;;;;1.33;0.68;;;;;;;;;;4997538;28;20562;-83
2022/09/19 02:26:51;;;;;;;3.22;0.68;;;;;;;;;;5052078;28;20201;-83
2022/09/19 02:29:30;;;;;;;3.05;0.90;;;;;;;;;;5051965;28;20045;-82
2022/09/19 02:32:04;;;;;;;1.33;0.50;;;;;;;;;;5065240;28;20193;-83
2022/09/19 02:34:35;;;;;;;2.63;0.80;;;;;;;;;;5036409;28;21026;-83
2022/09/19 02:37:12;;;;;;;1.92;0.60;;;;;;;;;;5049450;28;20037;-83
2022/09/19 02:40:12;;;;;;;1.73;0.60;;;;;;;;;;5052060;28;20111;-83
2022/09/19 02:46:06;;;;;;;2.08;0.73;;;;;;;;;;5068067;28;20201;-82
2022/09/19 02:48:52;;;;;;;5.90;0.90;;;;;;;;;;5067879;28;20111;-82
2022/09/19 02:51:35;;;;;;;1.85;0.80;;;;;;;;;;5053747;28;20060;-82
2022/09/19 02:54:14;;;;;;;3.65;0.80;;;;;;;;;;5051653;28;20032;-83
2022/09/19 02:56:43;;;;;;;1.65;0.85;;;;;;;;;;5064594;28;20183;-82
2022/09/19 02:59:17;;;;;;;1.70;0.68;;;;;;;;;;5038186;28;20119;-82
2022/09/19 03:01:58;;;;;;;5.72;0.70;;;;;;;;;;5047671;28;20483;-83
2022/09/19 03:04:32;;;;;;;1.55;0.70;;;;;;;;;;5076619;28;20045;-82
2022/09/19 03:07:53;;;;;;;2.65;0.50;;;;;;;;;;5068916;28;20040;-82
2022/09/19 03:10:45;;;;;;;2.10;0.75;;;;;;;;;;5054631;28;20036;-82
2022/09/19 03:13:29;;;;;;;1.42;0.63;;;;;;;;;;5053595;28;20083;-83
2022/09/19 03:16:08;;;;;;;3.22;0.80;;;;;;;;;;5046720;28;20028;-82
2022/09/19 03:18:39;;;;;;;5.88;1.10;;;;;;;;;;5070615;28;20066;-83
2022/09/19 03:21:08;;;;;;;3.33;0.82;;;;;;;;;;5050780;28;20832;-82
2022/09/19 03:23:42;;;;;;;3.10;0.70;;;;;;;;;;5070261;28;20110;-83
2022/09/19 03:26:16;;;;;;;1.65;0.52;;;;;;;;;;5068238;28;20037;-83
2022/09/19 03:28:45;;;;;;;1.58;0.77;;;;;;;;;;5067784;28;20131;-82
2022/09/19 03:31:13;;;;;;;2.15;0.60;;;;;;;;;;5050217;28;20323;-83
2022/09/19 03:33:41;;;;;;;2.08;0.50;;;;;;;;;;5049367;28;20124;-83
2022/09/19 03:36:13;;;;;;;1.25;0.60;;;;;;;;;;5046086;28;20040;-82
2022/09/19 03:38:44;;;;;;;1.75;0.60;;;;;;;;;;5053056;28;20427;-83
2022/09/19 03:41:41;;;;;;;0.68;0.47;;;;;;;;;;5054593;28;20113;-82
2022/09/19 03:44:09;;;;;;;1.70;0.60;;;;;;;;;;5072335;28;20064;-82
2022/09/19 03:46:41;;;;;;;1.63;0.80;;;;;;;;;;5056320;28;20715;-82
2022/09/19 03:52:09;;;;;;;3.58;0.90;;;;;;;;;;5072331;28;20044;-83
2022/09/19 03:54:37;;;;;;;4.07;1.00;;;;;;;;;;5054479;28;20052;-83
2022/09/19 03:57:07;;;;;;;3.53;0.88;;;;;;;;;;5070152;28;20097;-82
2022/09/19 03:59:42;;;;;;;3.05;0.75;;;;;;;;;;5053974;28;20442;-83
2022/09/19 04:02:11;;;;;;;4.28;0.75;;;;;;;;;;5053623;28;20032;-82
2022/09/19 04:05:05;;;;;;;4.93;0.73;;;;;;;;;;5069099;28;20043;-83
2022/09/19 04:07:38;;;;;;;2.15;0.93;;;;;;;;;;5071205;28;20838;-83
2022/09/19 04:10:11;;;;;;;4.57;0.70;;;;;;;;;;5055908;28;20679;-83
2022/09/19 04:13:03;;;;;;;1.10;0.60;;;;;;;;;;5040722;28;20032;-83
2022/09/19 04:15:38;;;;;;;1.50;0.70;;;;;;;;;;5055266;28;20127;-83
2022/09/19 04:18:07;;;;;;;1.67;0.68;;;;;;;;;;5057011;28;20036;-82
2022/09/19 04:20:38;;;;;;;1.67;0.57;;;;;;;;;;5054383;28;20040;-82
2022/09/19 04:23:41;;;;;;;1.23;0.75;;;;;;;;;;5071201;28;20051;-83
2022/09/19 04:26:31;;;;;;;2.97;0.85;;;;;;;;;;5043558;28;20028;-82
2022/09/19 04:29:02;;;;;;;3.08;0.77;;;;;;;;;;5070405;28;20033;-83
2022/09/19 04:31:55;;;;;;;3.35;0.70;;;;;;;;;;5068851;28;20098;-82
2022/09/19 04:34:23;;;;;;;2.25;0.70;;;;;;;;;;5052707;28;20036;-83
2022/09/19 04:37:41;;;;;;;1.60;0.70;;;;;;;;;;5069461;28;20067;-82
2022/09/19 04:40:40;;;;;;;1.92;0.95;;;;;;;;;;5074599;28;20055;-83
2022/09/19 04:43:11;;;;;;;3.28;0.93;;;;;;;;;;5071714;28;20044;-83
2022/09/19 04:45:45;;;;;;;2.00;0.77;;;;;;;;;;5054673;28;20044;-82
2022/09/19 04:48:19;;;;;;;2.47;1.00;;;;;;;;;;5038399;28;20028;-83
2022/09/19 04:51:14;;;;;;;1.10;0.60;;;;;;;;;;5055217;28;20052;-83
2022/09/19 04:53:45;;;;;;;2.20;0.85;;;;;;;;;;5052790;28;20032;-83
2022/09/19 04:56:13;;;;;;;3.45;0.90;;;;;;;;;;5052586;28;20087;-83
2022/09/19 04:58:44;;;;;;;2.10;1.00;;;;;;;;;;5039059;28;20075;-83
2022/09/19 05:01:14;;;;;;;1.83;0.73;;;;;;;;;;5055796;28;20040;-83
2022/09/19 05:04:08;;;;;;;1.80;0.82;;;;;;;;;;5061861;28;20033;-83
2022/09/19 05:06:43;;;;;;;3.25;0.88;;;;;;;;;;5052849;28;20131;-83
2022/09/19 05:09:11;;;;;;;1.75;0.80;;;;;;;;;;5052153;28;20049;-83
2022/09/19 05:11:51;;;;;;;2.22;1.00;;;;;;;;;;5054031;28;20041;-83
2022/09/19 05:14:25;;;;;;;2.40;0.93;;;;;;;;;;5067058;28;20727;-84
2022/09/19 05:16:57;;;;;;;4.65;1.13;;;;;;;;;;5066794;28;20574;-85
2022/09/19 05:19:50;;;;;;;8.90;1.15;;;;;;;;;;5052389;28;20646;-83
2022/09/19 05:22:22;;;;;;;4.15;1.38;;;;;;;;;;5053066;28;20052;-83
2022/09/19 05:24:52;;;;;;;3.35;1.10;;;;;;;;;;5070521;28;20071;-84
2022/09/19 05:27:21;;;;;;;3.65;1.58;;;;;;;;;;5054938;28;20033;-83
2022/09/19 05:30:21;;;;;;;3.83;1.50;;;;;;;;;;5068601;28;20033;-83
2022/09/19 05:33:21;;;;;;;5.68;1.80;;;;;;;;;;5051677;28;20051;-84
2022/09/19 05:36:17;;;;;;;4.72;1.95;;;;;;;;;;5036597;28;20496;-83
2022/09/19 05:39:13;;;;;;;5.38;1.63;;;;;;;;;;5054328;28;20051;-83
2022/09/19 05:42:01;;;;;;;10.05;2.10;;;;;;;;;;5053162;28;20053;-83
2022/09/19 05:44:54;;;;;;;7.75;2.08;;;;;;;;;;5049544;28;20595;-83
2022/09/19 05:47:47;;;;;;;4.63;1.95;;;;;;;;;;5067426;28;20032;-84
2022/09/19 05:50:15;;;;;;;3.63;1.67;;;;;;;;;;5049895;28;20079;-84
2022/09/19 05:56:15;;;;;;;6.57;1.77;;;;;;;;;;5050500;28;20036;-84
2022/09/19 05:58:57;;;;;;;6.35;1.60;;;;;;;;;;5049481;28;20150;-83
2022/09/19 06:04:57;;;;;;;4.75;1.38;;;;;;;;;;5057292;28;20036;-84
2022/09/19 06:07:41;;;;;;;6.00;1.40;;;;;;;;;;5034325;28;20085;-84
2022/09/19 06:10:24;;;;;;;5.28;1.48;;;;;;;;;;5047418;28;20060;-84
2022/09/19 06:14:23;;;;;;;3.47;1.30;;;;;;;;;;5057307;28;20041;-84
2022/09/19 06:18:34;;;;;;;9.13;1.30;;;;;;;;;;5064802;28;20581;-85
2022/09/19 06:22:03;;;;;;;7.10;1.45;;;;;;;;;;5069902;28;21044;-84
2022/09/19 06:25:30;;;;;;;7.93;1.63;;;;;;;;;;5070408;28;20040;-84
2022/09/19 06:28:13;;;;;;;13.00;1.75;;;;;;;;;;5068346;28;20068;-84
2022/09/19 06:31:12;;;;;;;7.00;1.23;;;;;;;;;;5031857;28;20036;-85
2022/09/19 06:33:47;;;;;;;7.70;1.50;;;;;;;;;;5047655;28;20044;-84
2022/09/19 06:36:23;;;;;;;6.88;1.75;;;;;;;;;;5063175;28;20050;-84
2022/09/19 06:39:07;;;;;;;5.90;1.33;;;;;;;;;;5042510;28;20063;-83
2022/09/19 06:41:47;;;;;;;9.85;1.58;;;;;;;;;;5050738;28;20454;-83
2022/09/19 06:44:31;;;;;;;7.55;2.05;;;;;;;;;;5058711;28;20099;-84
2022/09/19 06:47:06;;;;;;;13.77;1.83;;;;;;;;;;5059542;28;20500;-84
2022/09/19 06:49:53;;;;;;;12.88;1.70;;;;;;;;;;5044905;28;20181;-84
2022/09/19 06:52:25;;;;;;;5.70;1.60;;;;;;;;;;5047256;28;20488;-84
2022/09/19 06:54:53;;;;;;;9.63;1.83;;;;;;;;;;5049159;28;20052;-83
2022/09/19 06:57:58;;;;;;;12.57;2.38;;;;;;;;;;5065269;28;20392;-84
2022/09/19 07:00:29;;;;;;;10.43;1.58;;;;;;;;;;5046717;28;20496;-83
2022/09/19 07:03:03;;;;;;;11.05;1.85;;;;;;;;;;5026166;28;20040;-83
2022/09/19 07:05:35;;;;;;;17.48;1.80;;;;;;;;;;5065918;28;20072;-84
2022/09/19 07:09:02;;;;;;;10.63;1.67;;;;;;;;;;5040037;28;20044;-83
2022/09/19 07:11:37;;;;;;;13.48;1.92;;;;;;;;;;5029605;28;20060;-84
2022/09/19 07:14:12;;;;;;;9.02;1.60;;;;;;;;;;5034014;28;20045;-84
2022/09/19 07:16:41;;;;;;;12.30;2.05;;;;;;;;;;5028979;28;20086;-83
2022/09/19 07:19:09;;;;;;;12.85;1.85;;;;;;;;;;5044969;28;20044;-83
2022/09/19 07:21:53;;;;;;;14.13;1.60;;;;;;;;;;5047823;28;20496;-83
2022/09/19 07:24:43;;;;;;;17.73;1.90;;;;;;;;;;5061985;28;20056;-84
2022/09/19 07:27:34;;;;;;;14.48;1.60;;;;;;;;;;5043251;28;20127;-84
2022/09/19 07:30:01;;;;;;;13.90;1.60;;;;;;;;;;5065310;28;20416;-84
2022/09/19 07:32:35;;;;;;;12.38;1.88;;;;;;;;;;5049559;28;20557;-84
2022/09/19 07:35:03;;;;;;;10.38;2.20;;;;;;;;;;5047591;28;20040;-84
2022/09/19 07:37:39;;;;;;;14.95;1.80;;;;;;;;;;5049296;28;20060;-84
2022/09/19 07:40:45;;;;;;;11.65;1.60;;;;;;;;;;4985778;28;20042;-84
2022/09/19 07:43:56;;;;;;;10.50;1.75;;;;;;;;;;4986258;28;20080;-84
2022/09/19 07:47:26;;;;;;;17.17;1.77;;;;;;;;;;4983291;28;20062;-84
2022/09/19 07:49:56;;;;;;;13.98;2.17;;;;;;;;;;4985947;28;20064;-84
2022/09/19 07:53:06;;;;;;;16.30;4.45;;;;;;;;;;4969264;28;20054;-84
2022/09/19 07:55:35;;;;;;;14.95;1.98;;;;;;;;;;4986017;28;20039;-84
2022/09/19 07:58:27;;;;;;;14.40;2.47;;;;;;;;;;4983335;28;20422;-84
2022/09/19 08:01:03;;;;;;;9.18;1.77;;;;;;;;;;4969158;28;20093;-83
2022/09/19 08:03:49;;;;;;;16.67;1.67;;;;;;;;;;4986452;28;20038;-84
2022/09/19 08:06:26;;;;;;;15.82;2.50;;;;;;;;;;4983575;28;20522;-84
2022/09/19 08:08:58;;;;;;;12.48;1.60;;;;;;;;;;4969450;28;20145;-84
2022/09/19 08:11:45;;;;;;;10.82;1.60;;;;;;;;;;5027012;28;20564;-84
2022/09/19 08:14:13;;;;;;;13.93;1.95;;;;;;;;;;5044863;28;20041;-84
2022/09/19 08:17:30;;;;;;;9.48;2.17;;;;;;;;;;5062160;28;20515;-84
2022/09/19 08:20:04;;;;;;;14.68;2.13;;;;;;;;;;5046958;28;20457;-84
2022/09/19 08:22:58;;;;;;;12.10;1.48;;;;;;;;;;5047714;28;20048;-84
2022/09/19 08:25:28;;;;;;;6.22;1.20;;;;;;;;;;5031359;28;20047;-84
2022/09/19 08:28:21;;;;;;;12.05;1.70;;;;;;;;;;5042247;28;20041;-84
2022/09/19 08:30:58;;;;;;;7.95;1.55;;;;;;;;;;5063125;28;20067;-84
2022/09/19 08:33:27;;;;;;;12.30;2.03;;;;;;;;;;5047523;28;20039;-84
2022/09/19 08:35:55;;;;;;;10.07;1.55;;;;;;;;;;5046206;28;20542;-85
2022/09/19 08:38:51;;;;;;;4.70;1.23;;;;;;;;;;5065588;28;20075;-85
2022/09/19 08:41:48;;;;;;;15.15;2.15;;;;;;;;;;5032303;28;20496;-85
2022/09/19 08:44:32;;;;;;;15.30;2.17;;;;;;;;;;5035777;28;20156;-85
2022/09/19 08:47:13;;;;;;;12.65;2.03;;;;;;;;;;5034707;28;20044;-85
2022/09/19 08:49:50;;;;;;;8.32;1.10;;;;;;;;;;5049569;28;20057;-85
2022/09/19 08:52:22;;;;;;;8.43;1.20;;;;;;;;;;5051133;28;20125;-84
2022/09/19 08:54:52;;;;;;;6.90;0.85;;;;;;;;;;5066034;28;20037;-85
2022/09/19 08:57:34;;;;;;;16.20;1.75;;;;;;;;;;5052197;28;20492;-85
2022/09/19 09:00:15;;;;;;;8.60;1.13;;;;;;;;;;5050780;28;20047;-85
2022/09/19 09:02:55;;;;;;;6.30;1.20;;;;;;;;;;5052542;28;20049;-85
2022/09/19 09:05:59;;;;;;;13.40;1.20;;;;;;;;;;5049725;28;20037;-85
2022/09/19 09:08:59;;;;;;;6.43;1.00;;;;;;;;;;5051926;28;20048;-85
2022/09/19 09:12:26;;;;;;;10.30;1.13;;;;;;;;;;5049649;28;20119;-84
2022/09/19 09:15:20;;;;;;;10.38;1.48;;;;;;;;;;5048215;28;20055;-85
2022/09/19 09:18:31;;;;;;;7.22;1.08;;;;;;;;;;5048006;28;20044;-84
2022/09/19 09:22:48;;;;;;;15.10;2.05;;;;;;;;;;5057473;28;20032;-85
2022/09/19 09:26:24;;;;;;;7.40;1.20;;;;;;;;;;5062491;28;20044;-85
2022/09/19 09:29:47;;;;;;;7.93;1.20;;;;;;;;;;5066816;28;20070;-85
2022/09/19 09:32:45;;;;;;;4.55;0.90;;;;;;;;;;5051970;28;20488;-85
2022/09/19 09:35:34;;;;;;;4.70;0.80;;;;;;;;;;5050198;28;20076;-84
2022/09/19 09:38:47;;;;;;;6.50;1.63;;;;;;;;;;5030027;28;20040;-85
2022/09/19 09:41:54;;;;;;;5.57;0.77;;;;;;;;;;5060619;28;20037;-85
2022/09/19 09:44:51;;;;;;;6.10;1.40;;;;;;;;;;5046743;28;20645;-85
2022/09/19 09:47:48;;;;;;;4.43;0.80;;;;;;;;;;5050195;28;20047;-84
2022/09/19 09:50:31;;;;;;;;;;;;;;;;;;5035953;28;20048;-84
2022/09/19 09:53:25;;;;;;;5.57;0.88;;;;;;;;;;5048863;28;20005;-84
2022/09/19 09:56:17;;;;;;;5.10;0.85;;;;;;;;;;5045681;28;20047;-85
2022/09/19 10:03:34;;;;;;;4.05;0.63;;;;;;;;;;5067174;28;20040;-84
2022/09/19 10:05:52;;;;;;;6.75;1.23;;;;;;;;;;5044651;28;20040;-84
2022/09/19 10:09:18;;;;;;;5.63;0.98;;;;;;;;;;5054946;28;20040;-85
2022/09/19 10:12:42;;;;;;;6.22;1.00;;;;;;;;;;5051041;28;20040;-85
2022/09/19 10:15:27;;;;;;;5.38;1.02;;;;;;;;;;5045510;28;20040;-85
2022/09/19 10:18:59;;;;;;;8.00;0.82;;;;;;;;;;5053626;28;20131;-84
2022/09/19 10:21:50;;;;;;;6.20;0.90;;;;;;;;;;5064252;28;20048;-85
2022/09/19 10:24:42;;;;;;;;;;;;;;;;;;5038032;28;20040;-85
2022/09/19 10:27:31;;;;;;;2.50;0.60;;;;;;;;;;5066726;28;19924;-85
2022/09/19 10:31:04;;;;;;;3.65;0.80;;;;;;;;;;5063161;28;20044;-84
2022/09/19 10:34:50;;;;;;;3.90;0.65;;;;;;;;;;5034181;28;20056;-84
2022/09/19 10:37:33;;;;;;;2.92;0.90;;;;;;;;;;5031963;28;20488;-85
2022/09/19 10:40:13;;;;;;;3.92;0.63;;;;;;;;;;5043432;28;20060;-84
2022/09/19 10:42:55;;;;;;;2.60;0.52;;;;;;;;;;5050094;28;20049;-85
2022/09/19 10:45:47;;;;;;;3.30;0.63;;;;;;;;;;5065089;28;20040;-84
2022/09/19 10:48:33;;;;;;;3.75;0.60;;;;;;;;;;5063983;28;20043;-85
2022/09/19 10:51:46;;;;;;;3.55;0.68;;;;;;;;;;5054305;28;20123;-85
2022/09/19 10:55:13;;;;;;;4.82;0.98;;;;;;;;;;5034620;28;20040;-85
2022/09/19 10:58:03;;;;;;;5.47;1.25;;;;;;;;;;5060359;28;20056;-85
2022/09/19 11:00:56;;;;;;;4.63;0.65;;;;;;;;;;5061926;28;20040;-85
2022/09/19 11:03:57;;;;;;;2.45;0.80;;;;;;;;;;5066144;28;20105;-83
2022/09/19 11:07:02;;;;;;;5.70;1.02;;;;;;;;;;5041515;28;20170;-85
2022/09/19 11:09:48;;;;;;;6.55;0.60;;;;;;;;;;5063560;28;20048;-86
2022/09/19 11:12:42;;;;;;;5.07;1.10;;;;;;;;;;5051173;28;20064;-85
2022/09/19 11:15:26;;;;;;;6.57;0.70;;;;;;;;;;4976477;28;20429;-85
2022/09/19 11:18:16;;;;;;;6.38;0.80;;;;;;;;;;4998123;28;20045;-85
2022/09/19 11:21:07;;;;;;;4.55;0.55;;;;;;;;;;5002646;28;20553;-85
2022/09/19 11:24:40;;;;;;;3.78;0.95;;;;;;;;;;4996903;28;20054;-85
2022/09/19 11:27:42;;;;;;;4.18;1.10;;;;;;;;;;4977449;28;20050;-85
2022/09/19 11:30:26;;;;;;;2.65;0.32;;;;;;;;;;5003488;28;20054;-84
2022/09/19 11:33:05;;;;;;;1.83;0.47;;;;;;;;;;4983516;28;20065;-84
2022/09/19 11:36:07;;;;;;;6.22;0.73;;;;;;;;;;4998366;28;20058;-85
2022/09/19 11:39:24;;;;;;;1.33;0.30;;;;;;;;;;4972300;28;20556;-85
2022/09/19 11:42:34;;;;;;;2.65;0.40;;;;;;;;;;4981156;28;20145;-85
2022/09/19 11:45:19;;;;;;;8.15;2.58;;;;;;;;;;5000835;28;20089;-85
2022/09/19 11:48:42;;;;;;;2.15;0.50;;;;;;;;;;5045944;28;20028;-85
2022/09/19 11:51:34;;;;;;;4.35;0.90;;;;;;;;;;5063829;28;20111;-85
2022/09/19 11:54:44;;;;;;;3.85;0.40;;;;;;;;;;5049539;28;20041;-85
2022/09/19 11:57:41;;;;;;;3.20;0.63;;;;;;;;;;5062869;28;20033;-85
2022/09/19 12:00:39;;;;;;;0.80;0.38;;;;;;;;;;5032222;28;20547;-85
2022/09/19 12:04:10;;;;;;;2.63;0.50;;;;;;;;;;5055562;28;20680;-84
2022/09/19 12:07:54;;;;;;;4.15;0.43;;;;;;;;;;5063824;28;20090;-84
2022/09/19 12:10:49;;;;;;;2.13;0.50;;;;;;;;;;5068493;28;20037;-84
2022/09/19 12:13:53;;;;;;;2.38;0.40;;;;;;;;;;5053416;28;20075;-85
2022/09/19 12:17:28;;;;;;;4.43;0.40;;;;;;;;;;5049463;28;20073;-84
2022/09/19 12:20:26;;;;;;;5.88;0.52;;;;;;;;;;5069011;28;20045;-83
2022/09/19 12:24:52;;;;;;;3.50;0.60;;;;;;;;;;5064743;28;20041;-84
2022/09/19 12:25:55;;;;;;;4.95;1.00;;;;;;;;;;5059451;28;20043;-84
2022/09/19 12:28:42;;;;;;;7.40;0.82;;;;;;;;;;5065601;28;20037;-84
2022/09/19 12:31:29;;;;;;;5.47;0.85;;;;;;;;;;5034238;28;20064;-84
2022/09/19 12:34:41;;;;;;;2.00;0.68;;;;;;;;;;5070259;28;20049;-85
2022/09/19 12:37:51;;;;;;;3.87;0.60;;;;;;;;;;5065800;28;20037;-85
2022/09/19 12:40:50;;;;;;;1.13;0.40;;;;;;;;;;5046477;28;20094;-85
2022/09/19 12:43:46;;;;;;;1.45;0.40;;;;;;;;;;5037184;28;20090;-85
2022/09/19 12:46:39;;;;;;;3.33;0.50;;;;;;;;;;5062696;28;20577;-84
2022/09/19 12:49:28;;;;;;;2.65;0.80;;;;;;;;;;5036919;28;20036;-85
2022/09/19 12:52:24;;;;;;;4.50;0.68;;;;;;;;;;5049680;28;20160;-84
2022/09/19 12:55:03;;;;;;;5.00;0.73;;;;;;;;;;5050998;28;20075;-84
2022/09/19 12:58:05;;;;;;;1.35;0.50;;;;;;;;;;5065639;28;20045;-85
2022/09/19 13:01:35;;;;;;;3.38;0.60;;;;;;;;;;5065926;28;20180;-84
2022/09/19 13:04:21;;;;;;;1.67;0.50;;;;;;;;;;5017628;28;20049;-85
2022/09/19 13:06:51;;;;;;;4.15;0.73;;;;;;;;;;5032749;28;20492;-84
2022/09/19 13:09:24;;;;;;;3.20;0.82;;;;;;;;;;5035910;28;20053;-84
2022/09/19 13:12:03;;;;;;;2.28;0.70;;;;;;;;;;5032871;28;20098;-84
2022/09/19 13:14:52;;;;;;;4.35;1.48;;;;;;;;;;5033271;28;20092;-84
2022/09/19 13:23:35;;;;;;;3.78;1.05;;;;;;;;;;5002986;28;20135;-84
2022/09/19 13:26:17;;;;;;;1.20;0.50;;;;;;;;;;5033915;28;20084;-84
2022/09/19 13:28:53;;;;;;;3.25;0.60;;;;;;;;;;5016258;28;20114;-85
2022/09/19 13:31:52;;;;;;;2.25;0.80;;;;;;;;;;5032113;28;20084;-84
2022/09/19 13:35:00;;;;;;;2.22;0.57;;;;;;;;;;5021009;28;20544;-85
2022/09/19 13:37:27;;;;;;;5.38;0.85;;;;;;;;;;5035202;28;20049;-85
2022/09/19 13:39:55;;;;;;;6.93;0.85;;;;;;;;;;5025447;28;20459;-85
2022/09/19 13:43:08;;;;;;;3.67;1.40;;;;;;;;;;5062448;28;20089;-85
2022/09/19 13:45:56;;;;;;;5.50;1.77;;;;;;;;;;5032610;28;20093;-85
2022/09/19 13:49:05;;;;;;;2.15;0.85;;;;;;;;;;5043503;28;20132;-85
2022/09/19 13:51:51;;;;;;;4.00;1.00;;;;;;;;;;5063059;28;20461;-84
2022/09/19 13:54:23;;;;;;;2.60;0.88;;;;;;;;;;5064701;28;20055;-83
2022/09/19 13:57:02;;;;;;;2.60;1.08;;;;;;;;;;5064992;28;20067;-82
2022/09/19 13:59:35;;;;;;;3.58;1.27;;;;;;;;;;5047955;28;20041;-83
2022/09/19 14:02:12;;;;;;;3.60;1.05;;;;;;;;;;5051620;28;20035;-82
2022/09/19 14:05:12;;;;;;;5.07;0.90;;;;;;;;;;5048217;28;20040;-82
2022/09/19 14:07:53;;;;;;;2.67;1.00;;;;;;;;;;5045648;28;20036;-81
2022/09/19 14:10:48;;;;;;;2.25;1.15;;;;;;;;;;5062668;28;20451;-85
2022/09/19 14:13:49;;;;;;;3.50;1.30;;;;;;;;;;5064745;28;20455;-84
2022/09/19 14:16:30;;;;;;;5.70;0.85;;;;;;;;;;5030992;28;20480;-81
2022/09/19 14:19:42;;;;;;;2.40;0.80;;;;;;;;;;5045030;28;20290;-82
2022/09/19 14:22:34;;;;;;;2.58;0.77;;;;;;;;;;5046124;28;20055;-80
2022/09/19 14:25:14;;;;;;;1.75;0.80;;;;;;;;;;5030870;28;20645;-82
2022/09/19 14:28:00;;;;;;;3.55;0.90;;;;;;;;;;5064023;28;20044;-82
2022/09/19 14:30:43;;;;;;;2.90;0.63;;;;;;;;;;5046630;28;20079;-82
2022/09/19 14:33:25;;;;;;;3.85;1.20;;;;;;;;;;5065981;28;20140;-82
2022/09/19 14:36:31;;;;;;;3.75;1.13;;;;;;;;;;5049093;28;20048;-82
2022/09/19 14:39:20;;;;;;;3.05;1.08;;;;;;;;;;5063949;28;20491;-82
2022/09/19 14:42:54;;;;;;;3.35;1.40;;;;;;;;;;5064582;28;20036;-82
2022/09/19 14:45:52;;;;;;;3.15;1.15;;;;;;;;;;5044125;28;20056;-82
2022/09/19 14:48:43;;;;;;;5.47;1.30;;;;;;;;;;5067278;28;20086;-82
2022/09/19 14:51:30;;;;;;;3.60;0.70;;;;;;;;;;5048650;28;20488;-82
2022/09/19 14:54:31;;;;;;;3.53;0.70;;;;;;;;;;5066107;28;20041;-86
2022/09/19 14:57:06;;;;;;;4.57;0.90;;;;;;;;;;5048897;28;20044;-83
2022/09/19 15:00:27;;;;;;;7.22;0.80;;;;;;;;;;5067219;28;20041;-82
2022/09/19 15:03:10;;;;;;;3.42;0.70;;;;;;;;;;5066220;28;20043;-82
2022/09/19 15:05:44;;;;;;;3.65;1.30;;;;;;;;;;5035591;28;20075;-82
2022/09/19 15:08:28;;;;;;;1.25;0.57;;;;;;;;;;5047924;28;20404;-83
2022/09/19 15:11:09;;;;;;;2.47;0.70;;;;;;;;;;5065623;28;20040;-83
2022/09/19 15:13:47;;;;;;;5.78;0.80;;;;;;;;;;5066489;28;20121;-83
2022/09/19 15:16:15;;;;;;;4.50;0.63;;;;;;;;;;5046912;28;20036;-83
2022/09/19 15:18:51;;;;;;;3.83;0.50;;;;;;;;;;5062332;28;20029;-83
2022/09/19 15:22:30;;;;;;;2.78;0.52;;;;;;;;;;5065270;28;20035;-83
2022/09/19 15:25:21;;;;;;;0.60;0.30;;;;;;;;;;5066388;28;20481;-83
2022/09/19 15:27:52;;;;;;;0.93;0.25;;;;;;;;;;5047514;28;20029;-83
2022/09/19 15:30:25;;;;;;;1.38;0.30;;;;;;;;;;5065243;28;21106;-83
2022/09/19 15:32:58;;;;;;;0.73;0.30;;;;;;;;;;5064369;28;20067;-83
2022/09/19 15:35:30;;;;;;;2.50;0.22;;;;;;;;;;5045242;28;20036;-83
2022/09/19 15:38:01;;;;;;;1.88;0.57;;;;;;;;;;5047997;28;20041;-83
2022/09/19 15:40:34;;;;;;;0.25;0.10;;;;;;;;;;5050597;28;20062;-84
2022/09/19 15:43:15;;;;;;;1.42;0.22;;;;;;;;;;5067702;28;20041;-83
2022/09/19 15:45:49;;;;;;;1.08;0.25;;;;;;;;;;5069192;28;20047;-83
2022/09/19 15:48:27;;;;;;;0.82;0.30;;;;;;;;;;5050026;28;20082;-84
2022/09/19 15:50:58;;;;;;;2.17;0.45;;;;;;;;;;5068085;28;20032;-84
2022/09/19 15:53:31;;;;;;;0.43;0.20;;;;;;;;;;5067180;28;20492;-84
2022/09/19 15:56:11;;;;;;;0.95;0.20;;;;;;;;;;5065681;28;20056;-83
2022/09/19 15:58:55;;;;;;;1.38;0.50;;;;;;;;;;5066864;28;20510;-84
2022/09/19 16:01:46;;;;;;;0.75;0.22;;;;;;;;;;5047588;28;20074;-84
2022/09/19 16:04:26;;;;;;;1.35;0.20;;;;;;;;;;5068692;28;20068;-83
2022/09/19 16:09:48;;;;;;;0.65;0.30;;;;;;;;;;5051763;28;20045;-83
2022/09/19 16:12:40;;;;;;;0.38;0.20;;;;;;;;;;5068471;28;20496;-83
2022/09/19 16:18:53;;;;;;;1.75;0.32;;;;;;;;;;5065969;28;20521;-85
2022/09/19 16:21:39;;;;;;;0.30;0.15;;;;;;;;;;5049737;28;20489;-84
2022/09/19 16:24:25;;;;;;;0.98;0.40;;;;;;;;;;5054023;28;20527;-84
2022/09/19 16:27:10;;;;;;;2.60;0.70;;;;;;;;;;5047805;28;20045;-84
2022/09/19 16:29:54;;;;;;;1.30;0.55;;;;;;;;;;5036484;28;20106;-84
2022/09/19 16:32:42;;;;;;;3.85;0.50;;;;;;;;;;5064655;28;20086;-83
2022/09/19 16:35:16;;;;;;;5.00;0.82;;;;;;;;;;5047807;28;20044;-83
2022/09/19 16:38:06;;;;;;;2.35;0.50;;;;;;;;;;5050063;28;20045;-84
2022/09/19 16:40:54;;;;;;;10.15;0.98;;;;;;;;;;5051373;28;20048;-84
2022/09/19 16:43:42;;;;;;;7.40;1.30;;;;;;;;;;5066982;28;20118;-84
2022/09/19 16:46:13;;;;;;;6.53;1.10;;;;;;;;;;5017500;28;20052;-84
2022/09/19 16:49:07;;;;;;;4.78;1.48;;;;;;;;;;5046187;28;20028;-85
2022/09/19 16:51:50;;;;;;;3.70;1.10;;;;;;;;;;5052790;28;20133;-84
2022/09/19 16:54:20;;;;;;;6.53;1.33;;;;;;;;;;5068287;28;20032;-84
2022/09/19 16:56:47;;;;;;;3.17;0.93;;;;;;;;;;5066599;28;20032;-84
2022/09/19 16:59:19;;;;;;;3.78;1.00;;;;;;;;;;5066668;28;20692;-84
2022/09/19 17:01:51;;;;;;;3.45;0.98;;;;;;;;;;5058271;28;20144;-85
2022/09/19 17:04:22;;;;;;;1.27;0.60;;;;;;;;;;5045392;28;20037;-84
2022/09/19 17:06:51;;;;;;;6.30;1.40;;;;;;;;;;5064085;28;20775;-82
2022/09/19 17:09:20;;;;;;;2.78;1.10;;;;;;;;;;5047921;28;20036;-83
2022/09/19 17:11:53;;;;;;;4.53;1.65;;;;;;;;;;5064405;28;20044;-82